KCRW/CRW METAR and TAF weather

Enter ICAO airport designator
Station Type Date Time Source
KCRW METAR 2022/08/16 18:54 UTC NOAA

KCRW 161854Z VRB03KT 10SM BKN027 22/18 A3000 RMK AO2 SLP151 T02220178


Station Type Date Time Source
KCRW Decoded METAR 2022/08/16 18:54 UTC NOAA

YEAGER AIRPORT, WV, United States (KCRW) 38-22N 081-36W 309M
Aug 16, 2022 - 02:54 PM EDT / 2022.08.16 1854 UTC
Wind: Variable at 3 MPH (3 KT):0
Visibility: 10 mile(s):0
Sky conditions: mostly cloudy
Temperature: 72.0 F (22.2 C)
Dew Point: 64.0 F (17.8 C)
Relative Humidity: 76%
Pressure (altimeter): 30 in. Hg (1015 hPa)
ob: KCRW 161854Z VRB03KT 10SM BKN027 22/18 A3000 RMK AO2 SLP151 T02220178
cycle: 19

Station Type Date Time Source
KCRW TAF 2022/08/16 18:24 UTC NOAA

TAF KCRW 161721Z 1618/1718 33003KT 6SM BR BKN008
TEMPO 1620/1624 4SM SHRA BR OVC025
FM170900 00000KT 3SM BR BKN003
FM171000 00000KT 3SM BR BKN015
FM171200 00000KT 3SM BR SCT026
FM171600 VRB03KT P6SM FEW120

Example: see airport list